createdAt,value
2022-10-28T00:01:16.269Z,5.17
2022-10-28T00:03:47.274Z,4.80
2022-10-28T00:06:19.240Z,5.00
2022-10-28T00:08:47.217Z,4.90
2022-10-28T00:11:19.484Z,5.30
2022-10-28T00:13:47.497Z,5.00
2022-10-28T00:16:17.293Z,4.30
2022-10-28T00:18:45.287Z,4.53
2022-10-28T00:21:15.954Z,4.73
2022-10-28T00:23:43.060Z,4.53
2022-10-28T00:26:13.517Z,4.90
2022-10-28T00:28:43.423Z,4.70
2022-10-28T00:31:12.752Z,5.70
2022-10-28T00:33:40.114Z,5.10
2022-10-28T00:36:14.710Z,4.30
2022-10-28T00:38:43.476Z,4.57
2022-10-28T00:41:12.558Z,5.13
2022-10-28T00:43:44.373Z,4.87
2022-10-28T00:46:20.942Z,4.00
2022-10-28T00:48:54.543Z,5.17
2022-10-28T00:51:25.658Z,4.50
2022-10-28T00:53:55.270Z,5.20
2022-10-28T00:59:04.092Z,4.70
2022-10-28T01:01:31.439Z,4.67
2022-10-28T01:04:00.599Z,4.70
2022-10-28T01:06:29.555Z,3.97
2022-10-28T01:08:59.943Z,4.50
2022-10-28T01:11:53.039Z,5.23
2022-10-28T01:14:41.816Z,4.30
2022-10-28T01:17:44.199Z,4.43
2022-10-28T01:21:10.102Z,4.53
2022-10-28T01:23:57.973Z,3.90
2022-10-28T01:26:56.880Z,4.50
2022-10-28T01:29:58.497Z,4.37
2022-10-28T01:32:39.785Z,4.20
2022-10-28T01:35:20.845Z,4.80
2022-10-28T01:38:03.266Z,5.53
2022-10-28T01:40:35.960Z,4.70
2022-10-28T01:43:13.325Z,4.33
2022-10-28T01:45:51.438Z,4.57
2022-10-28T01:48:25.956Z,5.00
2022-10-28T01:51:00.991Z,4.97
2022-10-28T01:53:34.620Z,4.30
2022-10-28T01:56:09.625Z,5.20
2022-10-28T01:58:40.001Z,4.67
2022-10-28T02:01:10.245Z,4.70
2022-10-28T02:03:39.092Z,4.83
2022-10-28T02:06:15.915Z,4.80
2022-10-28T02:09:14.883Z,4.27
2022-10-28T02:12:03.485Z,4.33
2022-10-28T02:14:54.107Z,4.67
2022-10-28T02:17:38.261Z,4.53
2022-10-28T02:20:18.755Z,5.20
2022-10-28T02:22:52.086Z,3.90
2022-10-28T02:25:26.346Z,5.03
2022-10-28T02:28:02.686Z,4.53
2022-10-28T02:30:37.084Z,4.77
2022-10-28T02:33:11.223Z,4.60
2022-10-28T02:35:46.338Z,4.80
2022-10-28T02:38:18.630Z,5.00
2022-10-28T02:40:54.505Z,4.07
2022-10-28T02:43:25.891Z,5.20
2022-10-28T02:46:00.445Z,4.70
2022-10-28T02:48:34.901Z,5.00
2022-10-28T02:51:11.315Z,4.90
2022-10-28T02:53:50.284Z,4.77
2022-10-28T02:56:21.120Z,4.77
2022-10-28T02:58:48.916Z,4.43
2022-10-28T03:01:16.160Z,4.70
2022-10-28T03:03:43.699Z,5.00
2022-10-28T03:06:12.122Z,4.33
2022-10-28T03:08:39.193Z,4.63
2022-10-28T03:11:06.432Z,4.37
2022-10-28T03:13:33.413Z,4.60
2022-10-28T03:16:00.363Z,4.57
2022-10-28T03:18:27.346Z,5.33
2022-10-28T03:20:56.745Z,4.40
2022-10-28T03:23:27.241Z,4.33
2022-10-28T03:25:54.206Z,4.57
2022-10-28T03:28:21.210Z,5.27
2022-10-28T03:30:48.171Z,5.20
2022-10-28T03:33:15.481Z,4.40
2022-10-28T03:35:42.427Z,5.17
2022-10-28T03:38:09.375Z,5.33
2022-10-28T03:40:37.641Z,5.10
2022-10-28T03:43:04.693Z,5.17
2022-10-28T03:45:31.640Z,5.43
2022-10-28T03:47:58.601Z,4.30
2022-10-28T03:50:25.677Z,5.50
2022-10-28T03:52:52.642Z,5.27
2022-10-28T03:55:19.674Z,4.47
2022-10-28T03:57:48.043Z,5.33
2022-10-28T04:00:16.451Z,5.77
2022-10-28T04:02:43.434Z,5.77
2022-10-28T04:05:10.397Z,5.93
2022-10-28T04:07:37.361Z,5.60
2022-10-28T04:10:05.021Z,6.13
2022-10-28T04:12:31.997Z,5.83
2022-10-28T04:15:00.255Z,6.20
2022-10-28T04:17:27.225Z,5.90
2022-10-28T04:19:54.644Z,6.33
2022-10-28T04:22:21.767Z,6.23
2022-10-28T04:24:48.739Z,6.10
2022-10-28T04:27:15.972Z,5.77
2022-10-28T04:29:42.874Z,6.03
2022-10-28T04:32:11.161Z,6.07
2022-10-28T04:34:38.155Z,5.97
2022-10-28T04:37:05.218Z,5.60
2022-10-28T04:39:32.185Z,5.20
2022-10-28T04:41:59.113Z,5.90
2022-10-28T04:44:26.080Z,5.20
2022-10-28T04:46:55.456Z,4.57
2022-10-28T04:49:24.174Z,5.60
2022-10-28T04:51:51.191Z,4.93
2022-10-28T04:54:18.166Z,5.80
2022-10-28T04:56:45.179Z,5.63
2022-10-28T04:59:12.400Z,5.60
2022-10-28T05:01:39.464Z,5.97
2022-10-28T05:04:06.821Z,5.50
2022-10-28T05:06:35.176Z,5.90
2022-10-28T05:09:02.145Z,5.10
2022-10-28T05:11:29.164Z,5.40
2022-10-28T05:13:56.329Z,5.67
2022-10-28T05:16:23.438Z,5.37
2022-10-28T05:18:50.522Z,5.47
2022-10-28T05:21:17.889Z,4.87
2022-10-28T05:23:47.239Z,5.23
2022-10-28T05:26:14.472Z,5.60
2022-10-28T05:28:41.501Z,5.97
2022-10-28T05:31:08.942Z,5.33
2022-10-28T05:33:35.896Z,6.10
2022-10-28T05:36:02.816Z,5.03
2022-10-28T05:38:29.791Z,4.83
2022-10-28T05:40:58.100Z,5.70
2022-10-28T05:43:25.254Z,5.43
2022-10-28T05:45:52.967Z,5.77
2022-10-28T05:48:20.048Z,5.03
2022-10-28T05:50:47.052Z,5.27
2022-10-28T05:53:14.133Z,5.27
2022-10-28T05:55:45.197Z,5.73
2022-10-28T05:58:16.563Z,5.33
2022-10-28T06:00:43.562Z,5.77
2022-10-28T06:03:12.436Z,5.73
2022-10-28T06:05:43.226Z,5.00
2022-10-28T06:08:12.399Z,4.80
2022-10-28T06:10:40.076Z,4.97
2022-10-28T06:13:07.224Z,5.57
2022-10-28T06:15:35.577Z,5.77
2022-10-28T06:18:03.059Z,5.70
2022-10-28T06:20:30.072Z,5.60
2022-10-28T06:22:57.090Z,5.50
2022-10-28T06:25:25.912Z,5.20
2022-10-28T06:27:54.333Z,5.57
2022-10-28T06:30:23.108Z,5.23
2022-10-28T06:32:51.557Z,4.97
2022-10-28T06:35:19.000Z,5.30
2022-10-28T06:37:45.993Z,5.87
2022-10-28T06:40:13.144Z,5.37
2022-10-28T06:42:40.218Z,5.30
2022-10-28T06:45:08.212Z,4.77
2022-10-28T06:47:40.611Z,10.57
2022-10-28T06:50:10.463Z,5.83
2022-10-28T06:52:37.472Z,5.20
2022-10-28T06:55:05.474Z,5.70
2022-10-28T06:57:32.524Z,5.33
2022-10-28T06:59:59.913Z,5.50
2022-10-28T07:02:26.990Z,5.30
2022-10-28T07:04:53.975Z,5.13
2022-10-28T07:07:22.455Z,5.77
2022-10-28T07:09:49.555Z,5.70
2022-10-28T07:14:48.471Z,5.50
2022-10-28T07:17:15.482Z,6.10
2022-10-28T07:19:42.702Z,5.90
2022-10-28T07:22:09.699Z,6.30
2022-10-28T07:24:38.081Z,5.47
2022-10-28T07:27:05.158Z,6.27
2022-10-28T07:29:32.128Z,6.37
2022-10-28T07:31:59.293Z,4.90
2022-10-28T07:34:27.475Z,5.10
2022-10-28T07:36:56.239Z,5.60
2022-10-28T07:39:23.428Z,5.73
2022-10-28T07:41:51.713Z,6.23
2022-10-28T07:44:18.656Z,5.90
2022-10-28T07:46:45.653Z,5.60
2022-10-28T07:49:12.655Z,4.97
2022-10-28T07:51:39.622Z,5.80
2022-10-28T07:54:06.771Z,4.80
2022-10-28T07:56:33.838Z,5.00
2022-10-28T07:59:02.150Z,5.57
2022-10-28T08:01:29.243Z,6.30
2022-10-28T08:03:56.926Z,5.57
2022-10-28T08:06:24.175Z,5.13
2022-10-28T08:08:56.588Z,5.03
2022-10-28T08:11:24.427Z,5.57
2022-10-28T08:13:56.330Z,4.90
2022-10-28T08:16:25.026Z,5.50
2022-10-28T08:18:53.103Z,4.93
2022-10-28T08:21:20.595Z,4.90
2022-10-28T08:23:47.777Z,5.27
2022-10-28T08:26:16.326Z,4.73
2022-10-28T08:28:43.571Z,4.90
2022-10-28T08:31:12.308Z,5.33
2022-10-28T08:33:44.275Z,4.93
2022-10-28T08:36:13.958Z,4.50
2022-10-28T08:38:45.679Z,4.43
2022-10-28T08:41:38.873Z,5.00
2022-10-28T08:45:00.398Z,4.40
2022-10-28T08:47:41.678Z,4.43
2022-10-28T08:50:16.306Z,5.13
2022-10-28T08:52:51.571Z,4.20
2022-10-28T08:55:25.744Z,4.97
2022-10-28T08:57:57.574Z,3.77
2022-10-28T09:00:28.720Z,3.60
2022-10-28T09:03:16.972Z,4.20
2022-10-28T09:05:52.105Z,3.93
2022-10-28T09:08:24.034Z,3.80
2022-10-28T09:11:06.861Z,4.03
2022-10-28T09:13:57.416Z,4.63
2022-10-28T09:16:40.637Z,3.97
2022-10-28T09:19:39.901Z,4.40
2022-10-28T09:22:25.005Z,3.73
2022-10-28T09:24:55.895Z,4.30
2022-10-28T09:27:43.522Z,4.43
2022-10-28T09:30:40.270Z,3.50
2022-10-28T09:33:28.678Z,4.00
2022-10-28T09:35:57.977Z,3.57
2022-10-28T09:38:31.541Z,4.33
2022-10-28T09:41:04.504Z,3.03
2022-10-28T09:43:35.227Z,3.80
2022-10-28T09:46:10.867Z,4.50
2022-10-28T09:48:43.993Z,3.40
2022-10-28T09:51:28.521Z,4.50
2022-10-28T09:53:59.328Z,3.30
2022-10-28T09:56:29.539Z,3.43
2022-10-28T09:59:01.204Z,3.60
2022-10-28T10:01:33.583Z,4.40
2022-10-28T10:04:01.629Z,3.13
2022-10-28T10:06:35.261Z,3.60
2022-10-28T10:09:04.552Z,3.07
2022-10-28T10:11:40.751Z,3.37
2022-10-28T10:14:12.556Z,3.93
2022-10-28T10:16:47.050Z,3.80
2022-10-28T10:19:14.305Z,3.60
2022-10-28T10:21:45.743Z,4.27
2022-10-28T10:24:31.641Z,3.87
2022-10-28T10:27:02.884Z,3.73
2022-10-28T10:29:32.124Z,4.77
2022-10-28T10:32:16.292Z,4.50
2022-10-28T10:34:47.278Z,4.30
2022-10-28T10:37:21.626Z,3.70
2022-10-28T10:40:05.132Z,3.87
2022-10-28T10:42:39.214Z,3.93
2022-10-28T10:45:24.189Z,3.87
2022-10-28T10:48:11.948Z,4.03
2022-10-28T10:50:39.675Z,4.03
2022-10-28T10:53:16.443Z,4.50
2022-10-28T10:55:51.997Z,4.17
2022-10-28T10:58:23.599Z,4.03
2022-10-28T11:00:53.997Z,4.13
2022-10-28T11:03:27.822Z,3.83
2022-10-28T11:06:21.885Z,4.10
2022-10-28T11:08:47.395Z,4.90
2022-10-28T11:11:21.823Z,3.83
2022-10-28T11:14:03.427Z,4.13
2022-10-28T11:16:30.649Z,4.47
2022-10-28T11:18:57.844Z,4.47
2022-10-28T11:21:50.346Z,3.80
2022-10-28T11:24:51.455Z,3.73
2022-10-28T11:27:36.343Z,4.40
2022-10-28T11:30:11.007Z,3.90
2022-10-28T11:33:08.035Z,4.37
2022-10-28T11:35:59.116Z,4.67
2022-10-28T11:39:01.758Z,3.33
2022-10-28T11:41:46.692Z,4.63
2022-10-28T11:44:33.070Z,3.30
2022-10-28T11:47:22.219Z,4.50
2022-10-28T11:50:35.184Z,4.23
2022-10-28T11:53:39.664Z,4.13
2022-10-28T11:56:22.543Z,4.47
2022-10-28T11:59:06.503Z,4.00
2022-10-28T12:01:58.720Z,4.43
2022-10-28T12:04:49.214Z,3.90
2022-10-28T12:07:56.336Z,4.07
2022-10-28T12:10:45.680Z,4.33
2022-10-28T12:13:28.710Z,3.73
2022-10-28T12:16:03.125Z,4.53
2022-10-28T12:18:44.954Z,4.70
2022-10-28T12:21:24.092Z,5.00
2022-10-28T12:23:53.792Z,4.43
2022-10-28T12:26:35.634Z,3.70
2022-10-28T12:29:10.386Z,4.10
2022-10-28T12:31:45.132Z,4.43
2022-10-28T12:34:20.384Z,3.93
2022-10-28T12:36:53.558Z,3.90
2022-10-28T12:39:28.570Z,3.97
2022-10-28T12:42:03.079Z,5.00
2022-10-28T12:44:33.919Z,5.80
2022-10-28T12:47:16.159Z,3.50
2022-10-28T12:50:00.214Z,4.87
2022-10-28T12:52:39.787Z,3.90
2022-10-28T12:55:33.565Z,4.67
2022-10-28T12:58:10.449Z,4.70
2022-10-28T13:00:45.506Z,4.17
2022-10-28T13:03:14.901Z,4.17
2022-10-28T13:05:51.194Z,4.13
2022-10-28T13:12:17.375Z,4.23
2022-10-28T13:15:34.789Z,4.13
2022-10-28T13:18:46.888Z,3.50
2022-10-28T13:21:32.118Z,4.47
2022-10-28T13:24:10.723Z,4.30
2022-10-28T13:26:43.752Z,4.20
2022-10-28T13:29:22.549Z,4.23
2022-10-28T13:31:50.955Z,4.80
2022-10-28T13:34:22.700Z,4.33
2022-10-28T13:37:00.125Z,4.30
2022-10-28T13:39:43.681Z,4.07
2022-10-28T13:42:46.697Z,3.77
2022-10-28T13:45:49.983Z,4.70
2022-10-28T13:48:53.991Z,4.30
2022-10-28T13:51:51.133Z,3.80
2022-10-28T13:54:30.681Z,4.50
2022-10-28T13:57:09.045Z,3.73
2022-10-28T13:59:51.875Z,4.13
2022-10-28T14:02:34.993Z,5.07
2022-10-28T14:05:07.446Z,4.90
2022-10-28T14:07:38.210Z,3.67
2022-10-28T14:10:26.813Z,4.37
2022-10-28T14:12:59.657Z,5.03
2022-10-28T14:15:31.998Z,4.47
2022-10-28T14:18:16.110Z,4.50
2022-10-28T14:21:01.008Z,5.03
2022-10-28T14:24:07.130Z,4.60
2022-10-28T14:27:28.682Z,4.70
2022-10-28T14:30:21.305Z,4.73
2022-10-28T14:33:25.287Z,3.97
2022-10-28T14:36:15.713Z,4.37
2022-10-28T14:39:16.897Z,4.33
2022-10-28T14:42:14.801Z,4.60
2022-10-28T14:45:05.729Z,4.80
2022-10-28T14:48:17.418Z,4.63
2022-10-28T14:50:48.692Z,5.33
2022-10-28T14:53:25.486Z,4.40
2022-10-28T14:56:00.711Z,4.80
2022-10-28T14:58:35.175Z,4.30
2022-10-28T15:01:28.495Z,4.40
2022-10-28T15:04:01.917Z,3.87
2022-10-28T15:06:37.188Z,4.60
2022-10-28T15:09:23.084Z,4.77
2022-10-28T15:11:55.782Z,4.57
2022-10-28T15:14:33.829Z,5.43
2022-10-28T15:17:12.135Z,4.80
2022-10-28T15:19:41.078Z,4.70
2022-10-28T15:22:16.946Z,5.00
2022-10-28T15:24:57.616Z,5.03
2022-10-28T15:27:27.356Z,4.87
2022-10-28T15:29:55.733Z,5.43
2022-10-28T15:32:40.912Z,5.60
2022-10-28T15:35:39.467Z,4.90
2022-10-28T15:38:39.172Z,4.40
2022-10-28T15:41:56.341Z,5.30
2022-10-28T15:44:37.007Z,5.20
2022-10-28T15:47:23.234Z,5.00
2022-10-28T15:50:02.113Z,4.80
2022-10-28T15:52:37.586Z,5.23
2022-10-28T15:58:39.020Z,4.70
2022-10-28T16:01:28.819Z,5.10
2022-10-28T16:03:56.825Z,5.30
2022-10-28T16:06:28.008Z,5.07
2022-10-28T16:09:12.141Z,5.37
2022-10-28T16:11:44.984Z,5.53
2022-10-28T16:14:33.350Z,4.53
2022-10-28T16:17:15.082Z,4.57
2022-10-28T16:19:50.247Z,5.20
2022-10-28T16:22:18.373Z,4.80
2022-10-28T16:24:46.731Z,5.00
2022-10-28T16:27:20.338Z,4.47
2022-10-28T16:29:48.143Z,5.03
2022-10-28T16:32:19.647Z,4.70
2022-10-28T16:34:46.641Z,5.30
2022-10-28T16:37:23.044Z,5.33
2022-10-28T16:39:51.949Z,4.57
2022-10-28T16:42:21.058Z,4.40
2022-10-28T16:44:48.666Z,4.47
2022-10-28T16:47:18.227Z,3.63
2022-10-28T16:49:45.713Z,4.83
2022-10-28T16:52:17.793Z,5.60
2022-10-28T16:54:44.763Z,4.70
2022-10-28T16:57:15.141Z,5.37
2022-10-28T16:59:42.309Z,5.43
2022-10-28T17:02:19.226Z,5.97
2022-10-28T17:04:46.280Z,6.27
2022-10-28T17:07:16.177Z,5.60
2022-10-28T17:09:43.227Z,6.53
2022-10-28T17:12:15.376Z,5.73
2022-10-28T17:14:42.449Z,4.73
2022-10-28T17:17:10.302Z,5.80
2022-10-28T17:19:37.552Z,5.93
2022-10-28T17:22:09.054Z,6.40
2022-10-28T17:24:37.762Z,5.70
2022-10-28T17:27:05.352Z,5.13
2022-10-28T17:29:33.932Z,6.40
2022-10-28T17:32:02.264Z,5.57
2022-10-28T17:34:29.450Z,5.10
2022-10-28T17:36:56.479Z,5.43
2022-10-28T17:39:26.364Z,5.00
2022-10-28T17:41:53.982Z,5.50
2022-10-28T17:44:21.529Z,6.00
2022-10-28T17:46:51.320Z,6.47
2022-10-28T17:49:18.899Z,6.37
2022-10-28T17:51:46.126Z,5.30
2022-10-28T17:54:13.159Z,5.93
2022-10-28T17:56:41.906Z,5.50
2022-10-28T17:59:09.304Z,5.60
2022-10-28T18:01:36.646Z,6.30
2022-10-28T18:04:05.988Z,5.77
2022-10-28T18:06:33.048Z,5.23
2022-10-28T18:09:00.075Z,5.43
2022-10-28T18:11:27.377Z,5.37
2022-10-28T18:13:56.204Z,4.90
2022-10-28T18:16:27.851Z,5.90
2022-10-28T18:18:55.849Z,6.20
2022-10-28T18:21:24.566Z,6.53
2022-10-28T18:23:52.678Z,5.70
2022-10-28T18:26:21.106Z,6.43
2022-10-28T18:28:48.951Z,6.53
2022-10-28T18:31:19.097Z,6.17
2022-10-28T18:33:46.913Z,5.50
2022-10-28T18:36:16.638Z,5.63
2022-10-28T18:38:45.227Z,5.90
2022-10-28T18:41:14.112Z,5.97
2022-10-28T18:43:41.649Z,6.17
2022-10-28T18:46:09.444Z,6.00
2022-10-28T18:48:37.060Z,6.17
2022-10-28T18:51:09.328Z,6.30
2022-10-28T18:53:39.098Z,6.03
2022-10-28T18:56:10.854Z,6.57
2022-10-28T18:58:38.015Z,6.10
2022-10-28T19:01:07.796Z,6.20
2022-10-28T19:03:35.499Z,5.87
2022-10-28T19:06:05.201Z,5.77
2022-10-28T19:08:32.559Z,5.77
2022-10-28T19:11:02.782Z,5.77
2022-10-28T19:13:34.253Z,5.63
2022-10-28T19:16:01.476Z,5.83
2022-10-28T19:18:28.883Z,5.80
2022-10-28T19:21:04.012Z,5.87
2022-10-28T19:23:31.622Z,5.93
2022-10-28T19:25:59.887Z,5.63
2022-10-28T19:28:27.459Z,6.43
2022-10-28T19:31:04.920Z,5.97
2022-10-28T19:33:32.899Z,6.07
2022-10-28T19:36:05.527Z,5.87
2022-10-28T19:38:34.702Z,6.40
2022-10-28T19:41:04.579Z,5.37
2022-10-28T19:43:31.982Z,6.10
2022-10-28T19:46:11.061Z,5.43
2022-10-28T19:48:39.696Z,5.67
2022-10-28T19:51:07.791Z,5.57
2022-10-28T19:53:35.007Z,5.07
2022-10-28T19:56:04.100Z,5.80
2022-10-28T19:58:32.434Z,6.10
2022-10-28T20:01:01.907Z,5.40
2022-10-28T20:03:34.325Z,5.90
2022-10-28T20:06:06.706Z,5.83
2022-10-28T20:08:35.751Z,6.33
2022-10-28T20:11:05.528Z,5.00
2022-10-28T20:13:33.767Z,5.00
2022-10-28T20:16:04.004Z,5.23
2022-10-28T20:18:33.998Z,5.93
2022-10-28T20:21:06.564Z,5.40
2022-10-28T20:23:35.552Z,5.00
2022-10-28T20:26:04.095Z,5.47
2022-10-28T20:28:31.859Z,6.10
2022-10-28T20:31:01.164Z,4.97
2022-10-28T20:33:30.394Z,5.17
2022-10-28T20:35:59.082Z,5.17
2022-10-28T20:38:27.063Z,5.37
2022-10-28T20:40:56.818Z,5.07
2022-10-28T20:43:26.494Z,4.70
2022-10-28T20:45:55.943Z,5.80
2022-10-28T20:48:23.448Z,5.77
2022-10-28T20:50:53.645Z,6.07
2022-10-28T20:53:23.829Z,6.40
2022-10-28T20:55:53.257Z,5.87
2022-10-28T20:58:21.751Z,5.87
2022-10-28T21:00:50.876Z,5.20
2022-10-28T21:03:17.925Z,5.20
2022-10-28T21:05:44.910Z,5.67
2022-10-28T21:08:13.105Z,4.70
2022-10-28T21:10:41.436Z,6.00
2022-10-28T21:13:08.664Z,5.37
2022-10-28T21:15:38.277Z,4.90
2022-10-28T21:18:08.105Z,5.50
2022-10-28T21:20:36.323Z,5.33
2022-10-28T21:23:03.990Z,5.30
2022-10-28T21:25:32.406Z,4.97
2022-10-28T21:28:01.021Z,5.30
2022-10-28T21:30:28.092Z,4.67
2022-10-28T21:32:55.355Z,5.93
2022-10-28T21:35:23.089Z,5.77
2022-10-28T21:37:50.110Z,5.77
2022-10-28T21:40:17.240Z,6.27
2022-10-28T21:42:49.174Z,6.23
2022-10-28T21:45:17.787Z,6.10
2022-10-28T21:47:44.791Z,7.10
2022-10-28T21:50:12.176Z,5.77
2022-10-28T21:52:39.200Z,5.40
2022-10-28T21:55:14.837Z,6.40
2022-10-28T21:57:54.210Z,6.33
2022-10-28T22:00:22.798Z,4.83
2022-10-28T22:02:50.810Z,6.23
2022-10-28T22:05:17.825Z,5.50
2022-10-28T22:07:45.055Z,5.90
2022-10-28T22:10:12.037Z,6.07
2022-10-28T22:12:39.084Z,6.47
2022-10-28T22:15:07.579Z,7.07
2022-10-28T22:17:35.927Z,6.50
2022-10-28T22:20:06.687Z,5.50
2022-10-28T22:22:33.759Z,5.80
2022-10-28T22:25:01.300Z,6.80
2022-10-28T22:27:29.796Z,5.67
2022-10-28T22:29:56.779Z,5.43
2022-10-28T22:32:23.747Z,6.30
2022-10-28T22:34:52.063Z,6.17
2022-10-28T22:37:19.080Z,5.57
2022-10-28T22:39:46.019Z,6.03
2022-10-28T22:42:13.031Z,5.80
2022-10-28T22:44:40.033Z,5.97
2022-10-28T22:47:07.041Z,6.07
2022-10-28T22:49:33.993Z,6.10
2022-10-28T22:52:02.293Z,6.13
2022-10-28T22:54:29.236Z,5.43
2022-10-28T22:56:56.235Z,6.20
2022-10-28T22:59:23.162Z,5.83
2022-10-28T23:01:51.963Z,5.53
2022-10-28T23:04:19.007Z,6.47
2022-10-28T23:06:46.033Z,5.83
2022-10-28T23:09:14.302Z,5.77
2022-10-28T23:11:41.254Z,5.97
2022-10-28T23:14:08.322Z,6.47
2022-10-28T23:16:35.311Z,6.17
2022-10-28T23:19:02.516Z,6.30
2022-10-28T23:21:29.669Z,5.73
2022-10-28T23:23:59.063Z,6.20
2022-10-28T23:26:29.509Z,6.07
2022-10-28T23:28:59.032Z,5.90
2022-10-28T23:31:27.393Z,5.43
2022-10-28T23:33:55.121Z,5.80
2022-10-28T23:36:23.055Z,5.80
2022-10-28T23:38:50.049Z,5.40
2022-10-28T23:41:18.735Z,5.40
2022-10-28T23:43:48.603Z,5.70
2022-10-28T23:46:16.393Z,5.80
2022-10-28T23:48:43.428Z,6.23
2022-10-28T23:51:10.410Z,6.53
2022-10-28T23:53:37.395Z,5.90
2022-10-28T23:56:06.565Z,5.40
2022-10-28T23:58:33.508Z,6.30
